Startpagina
METAR-TAF:

METAR-TAF

Vliegvelden :

Tripoli, Libië

Luchthaven Mitiga Internationaal

breedte: 32-54N, lengte: 13-17E, hoogte: 11 m

Actueel weer

Dit bericht is 1 uur en het 49 minuten geleden gemaakt, om 10:50 UTC
Wind 8 kt uit het noordwesten
Temperatuur 18°C
Vochtigheid 64%
Druk 1020 hPa
Zicht: 8000 m
Weinig wolken op 1200 ft
Verspreide wolken op 3000 ft

METAR: HLLM 271050Z 31008KT 8000 FEW012 SCT030 18/11 Q1020

Tijdstip: 14:39 (12:39 UTC)

Verwachting

Dit bericht is 7 uur en het 39 minuten geleden gemaakt, om 05:00 UTC
Verwachting geldig van 27 om 06 UTC tot 28 om 06 UTC
Wind 12 kt uit het noordnoordwesten
Zicht: 8000 m
Verspreide wolken op 2500 ft
Wijzigt naar
van 27 om 22 UTC tot 27 om 24 UTC
Wind 2 kt uit variabele richting

TAF: HLLM 270500Z 2706/2806 34012KT 8000 SCT025 BECMG 2722/2724 VRB02KT

Waarnemingen en weersverwachtingen van meer dan 4000 vliegvelden (METAR en TAF).

De beschikbare stations zijn de gele en rode punten op de kaart.

Ga met uw muis naar het station om de naam te zien.

Klik dan om waarnemingen en weersverwachtingen te zien.

kaart wijzigen: klik op de groene knoppen met een zwart kruis om in te zoomen, op de groene knop met een streepje om uit te zoomen of op de groene pijlen voor aangrenzende kaarten.


METAR-TAF: